Time;durP1;ratioP1;P1;durP2;ratioP2;P2;SDS_P1;SDS_P2;PMS_P1;PMS_P2;Temp;Humidity;BMP_temperature;BMP_pressure;BME280_temperature;BME280_humidity;BME280_pressure;Samples;Min_cycle;Max_cycle;Signal;HPM_P1;HPM_P2
2021/01/05 00:01:38;;;;;;;;;;;;;;;5.73;73.55;100047.93;118978;1147;104514;-72
2021/01/05 00:04:05;;;;;;;;;;;;;;;5.71;73.76;100051.53;118510;1147;104598;-72
2021/01/05 00:06:32;;;;;;;;;;;;;;;5.71;73.48;100051.53;118743;1146;104495;-72
2021/01/05 00:08:59;;;;;;;;;;;;;;;5.73;72.99;100050.58;118506;1146;104466;-72
2021/01/05 00:11:26;;;;;;;;;;;;;;;5.71;73.47;100053.34;118617;1147;104457;-72
2021/01/05 00:13:53;;;;;;;;;;;;;;;5.67;73.01;100047.45;119024;1147;104473;-72
2021/01/05 00:16:20;;;;;;;;;;;;;;;5.66;73.03;100043.15;119020;1146;104556;-72
2021/01/05 00:18:47;;;;;;;;;;;;;;;5.62;72.92;100046.16;118997;1148;104583;-72
2021/01/05 00:21:14;;;;;;;;;;;;;;;5.55;72.96;100035.25;118973;1147;104547;-72
2021/01/05 00:23:41;;;;;;;;;;;;;;;5.48;73.45;100044.65;119022;1147;104482;-72
2021/01/05 00:26:08;;;;;;;;;;;;;;;5.40;73.45;100045.27;119062;1147;104895;-72
2021/01/05 00:28:35;;;;;;;;;;;;;;;5.36;73.86;100043.02;118993;1147;104546;-72
2021/01/05 00:31:03;;;;;;;;;;;;;;;5.33;73.39;100041.44;119002;1147;104544;-72
2021/01/05 00:33:30;;;;;;;;;;;;;;;5.32;73.41;100034.48;118900;1147;104575;-72
2021/01/05 00:35:57;;;;;;;;;;;;;;;5.34;73.99;100037.84;118962;1147;104588;-72
2021/01/05 00:38:24;;;;;;;;;;;;;;;5.36;73.66;100043.84;118986;1147;104457;-73
2021/01/05 00:40:51;;;;;;;;;;;;;;;5.39;73.40;100043.61;118941;1147;104495;-73
2021/01/05 00:43:18;;;;;;;;;;;;;;;5.36;74.00;100049.14;119114;1147;104507;-72
2021/01/05 00:45:45;;;;;;;;;;;;;;;5.33;73.53;100040.61;118966;1147;104819;-72
2021/01/05 00:48:14;;;;;;;;;;;;;;;5.28;73.71;100038.34;119034;1147;104512;-72
2021/01/05 00:50:41;;;;;;;;;;;;;;;5.22;73.90;100031.75;119000;1147;104470;-72
2021/01/05 00:53:08;;;;;;;;;;;;;;;5.19;73.95;100037.27;118947;1148;104494;-72
2021/01/05 00:55:36;;;;;;;;;;;;;;;5.19;73.72;100039.09;118973;1147;104512;-72
2021/01/05 00:58:03;;;;;;;;;;;;;;;5.17;74.04;100033.08;119034;1147;104531;-72
2021/01/05 01:00:31;;;;;;;;;;;;;;;5.15;73.87;100019.14;118877;1146;104548;-72
2021/01/05 01:03:07;;;;;;;;;;;;;;;5.15;73.88;100016.50;118871;1147;104939;-72
2021/01/05 01:05:36;;;;;;;;;;;;;;;5.14;73.64;100018.31;119002;1147;104618;-71
2021/01/05 01:08:05;;;;;;;;;;;;;;;5.16;74.13;100010.22;119075;1147;104489;-72
2021/01/05 01:10:32;;;;;;;;;;;;;;;5.19;74.07;100013.47;118935;1147;104511;-72
2021/01/05 01:12:59;;;;;;;;;;;;;;;5.08;73.71;100011.70;118951;1147;104861;-72
2021/01/05 01:15:27;;;;;;;;;;;;;;;5.08;73.88;100003.77;118971;1147;104556;-72
2021/01/05 01:17:55;;;;;;;;;;;;;;;5.15;74.37;100003.27;118994;1146;104543;-72
2021/01/05 01:20:22;;;;;;;;;;;;;;;5.17;74.10;99998.70;118936;1147;104524;-72
2021/01/05 01:22:50;;;;;;;;;;;;;;;5.14;73.91;99991.00;119053;1146;104498;-72
2021/01/05 01:25:18;;;;;;;;;;;;;;;5.11;74.05;99997.39;118977;1147;104551;-72
2021/01/05 01:27:46;;;;;;;;;;;;;;;5.07;74.40;99988.86;119053;1147;104543;-72
2021/01/05 01:30:17;;;;;;;;;;;;;;;5.11;74.37;99989.45;119005;1147;104515;-73
2021/01/05 01:32:54;;;;;;;;;;;;;;;5.06;74.35;99984.55;118983;1147;104515;-71
2021/01/05 01:35:21;;;;;;;;;;;;;;;5.03;74.64;99989.24;118967;1147;104544;-72
2021/01/05 01:37:49;;;;;;;;;;;;;;;5.01;74.30;99986.72;118947;1146;104492;-73
2021/01/05 01:40:19;;;;;;;;;;;;;;;4.99;74.08;99987.81;119001;1148;104444;-73
2021/01/05 01:42:47;;;;;;;;;;;;;;;4.98;74.13;99989.59;118931;1147;105087;-72
2021/01/05 01:45:22;;;;;;;;;;;;;;;5.01;75.06;99984.07;118957;1148;104474;-72
2021/01/05 01:47:50;;;;;;;;;;;;;;;5.03;74.40;99981.31;119043;1147;104870;-72
2021/01/05 01:50:23;;;;;;;;;;;;;;;5.06;74.72;99978.40;118702;1145;104508;-73
2021/01/05 01:53:05;;;;;;;;;;;;;;;5.07;74.65;99977.45;118918;1148;104514;-72
2021/01/05 01:55:37;;;;;;;;;;;;;;;5.07;74.62;99966.87;119032;1147;104486;-72
2021/01/05 01:58:15;;;;;;;;;;;;;;;5.06;74.13;99971.33;119010;1146;104594;-72
2021/01/05 02:00:57;;;;;;;;;;;;;;;5.07;74.33;99967.70;119030;1147;104540;-72
2021/01/05 02:03:34;;;;;;;;;;;;;;;5.09;74.27;99968.41;118986;1147;104475;-72
2021/01/05 02:06:14;;;;;;;;;;;;;;;5.13;74.08;99965.53;118974;1147;104553;-72
2021/01/05 02:08:48;;;;;;;;;;;;;;;5.11;74.66;99963.00;119060;1146;104503;-72
2021/01/05 02:11:22;;;;;;;;;;;;;;;5.07;74.68;99966.87;118958;1147;104611;-73
2021/01/05 02:14:07;;;;;;;;;;;;;;;5.09;74.52;99970.23;118982;1147;104533;-72
2021/01/05 02:16:39;;;;;;;;;;;;;;;5.16;74.51;99960.84;118998;1147;104455;-72
2021/01/05 02:19:16;;;;;;;;;;;;;;;5.18;74.79;99958.91;118992;1146;104492;-72
2021/01/05 02:21:50;;;;;;;;;;;;;;;5.18;74.51;99958.07;118934;1147;104544;-72
2021/01/05 02:24:26;;;;;;;;;;;;;;;5.18;74.72;99958.07;118895;1147;104547;-72
2021/01/05 02:26:59;;;;;;;;;;;;;;;5.17;74.55;99956.37;118981;1147;104502;-72
2021/01/05 02:29:28;;;;;;;;;;;;;;;5.15;74.75;99953.85;119052;1146;104546;-72
2021/01/05 02:32:08;;;;;;;;;;;;;;;5.13;74.86;99945.20;118969;1147;104534;-72
2021/01/05 02:34:47;;;;;;;;;;;;;;;5.11;75.21;99947.97;118986;1147;104499;-72
2021/01/05 02:37:38;;;;;;;;;;;;;;;5.09;74.61;99941.13;118959;1148;104593;-73
2021/01/05 02:40:29;;;;;;;;;;;;;;;5.03;74.74;99934.55;118787;1147;104553;-72
2021/01/05 02:43:48;;;;;;;;;;;;;;;5.00;74.65;99932.14;118850;1147;104547;-72
2021/01/05 02:46:51;;;;;;;;;;;;;;;5.03;75.24;99934.55;118936;1147;104474;-72
2021/01/05 02:49:44;;;;;;;;;;;;;;;5.02;74.58;99926.73;119001;1146;104522;-71
2021/01/05 02:52:44;;;;;;;;;;;;;;;5.00;75.23;99918.91;118809;1146;104529;-72
2021/01/05 02:55:58;;;;;;;;;;;;;;;5.02;75.50;99914.37;118895;1146;104636;-72
2021/01/05 02:58:59;;;;;;;;;;;;;;;5.07;75.24;99921.91;118481;1147;104450;-74
2021/01/05 03:02:19;;;;;;;;;;;;;;;5.03;75.13;99913.39;118504;1149;104697;-72
2021/01/05 03:05:07;;;;;;;;;;;;;;;5.02;75.25;99917.02;118465;1150;104691;-72
2021/01/05 03:07:53;;;;;;;;;;;;;;;5.02;75.37;99910.86;118749;1146;104687;-73
2021/01/05 03:10:43;;;;;;;;;;;;;;;5.01;75.15;99904.74;118937;1147;104662;-72
2021/01/05 03:13:49;;;;;;;;;;;;;;;5.01;75.86;99899.45;118723;1146;104579;-72
2021/01/05 03:16:37;;;;;;;;;;;;;;;5.04;75.26;99887.77;118986;1147;104549;-72
2021/01/05 03:19:30;;;;;;;;;;;;;;;5.06;75.34;99883.20;118925;1147;104454;-73
2021/01/05 03:22:17;;;;;;;;;;;;;;;5.07;75.63;99893.66;118785;1147;104535;-73
2021/01/05 03:25:05;;;;;;;;;;;;;;;5.03;75.54;99876.37;118772;1147;104481;-73
2021/01/05 03:27:50;;;;;;;;;;;;;;;5.01;75.59;99873.02;118553;1147;104581;-74
2021/01/05 03:30:53;;;;;;;;;;;;;;;5.01;75.50;99872.19;118662;1146;104678;-74
2021/01/05 03:33:39;;;;;;;;;;;;;;;4.99;75.99;99864.37;118558;1147;104956;-75
2021/01/05 03:36:25;;;;;;;;;;;;;;;5.01;75.69;99873.02;118720;1146;104549;-72
2021/01/05 03:39:11;;;;;;;;;;;;;;;4.99;75.54;99880.23;118940;1147;104573;-73
2021/01/05 03:41:57;;;;;;;;;;;;;;;4.95;75.64;99873.52;118745;1146;104527;-74
2021/01/05 03:44:42;;;;;;;;;;;;;;;4.94;75.89;99871.83;118515;1146;104620;-73
2021/01/05 03:47:32;;;;;;;;;;;;;;;4.92;76.11;99864.02;118275;1147;104539;-74
2021/01/05 03:50:19;;;;;;;;;;;;;;;4.88;76.27;99865.24;118776;1147;104575;-74
2021/01/05 03:53:05;;;;;;;;;;;;;;;4.86;76.26;99858.41;118977;1147;104470;-71
2021/01/05 03:55:50;;;;;;;;;;;;;;;4.90;75.85;99854.55;119041;1146;104916;-72
2021/01/05 03:58:36;;;;;;;;;;;;;;;4.88;76.03;99853.84;118804;1147;104537;-73
2021/01/05 04:01:22;;;;;;;;;;;;;;;4.85;76.07;99849.65;118976;1148;104601;-71
2021/01/05 04:03:49;;;;;;;;;;;;;;;4.87;76.04;99852.17;118562;1147;104529;-72
2021/01/05 04:06:16;;;;;;;;;;;;;;;4.89;76.34;99850.24;118528;1147;104543;-73
2021/01/05 04:08:43;;;;;;;;;;;;;;;4.86;76.15;99851.31;118777;1148;104477;-72
2021/01/05 04:11:15;;;;;;;;;;;;;;;4.86;76.31;99847.84;118629;1147;104473;-73
2021/01/05 04:13:42;;;;;;;;;;;;;;;4.83;76.39;99856.01;118622;1148;104576;-72
2021/01/05 04:16:09;;;;;;;;;;;;;;;4.82;76.29;99851.70;118519;1148;104562;-73
2021/01/05 04:18:36;;;;;;;;;;;;;;;4.80;75.98;99846.54;118522;1148;104902;-73
2021/01/05 04:21:03;;;;;;;;;;;;;;;4.80;76.57;99848.34;118515;1147;104479;-73
2021/01/05 04:23:30;;;;;;;;;;;;;;;4.82;76.30;99846.42;118674;1147;104558;-74
2021/01/05 04:25:57;;;;;;;;;;;;;;;4.84;76.22;99845.31;118929;1147;104567;-73
2021/01/05 04:28:24;;;;;;;;;;;;;;;4.80;76.52;99850.99;119004;1147;104478;-72
2021/01/05 04:30:51;;;;;;;;;;;;;;;4.77;76.88;99848.59;118557;1147;104649;-73
2021/01/05 04:33:18;;;;;;;;;;;;;;;4.78;76.61;99844.99;118484;1147;104550;-73
2021/01/05 04:35:45;;;;;;;;;;;;;;;4.84;77.11;99834.74;118763;1147;104591;-73
2021/01/05 04:38:12;;;;;;;;;;;;;;;4.86;76.11;99845.20;118500;1148;104471;-72
2021/01/05 04:40:42;;;;;;;;;;;;;;;4.90;75.95;99843.97;118745;1147;104553;-72
2021/01/05 04:43:15;;;;;;;;;;;;;;;4.90;76.64;99843.97;118661;1147;104454;-73
2021/01/05 04:45:45;;;;;;;;;;;;;;;4.87;76.30;99846.89;118480;1147;104451;-73
2021/01/05 04:48:21;;;;;;;;;;;;;;;4.83;76.55;99842.80;118489;1147;104538;-73
2021/01/05 04:50:50;;;;;;;;;;;;;;;4.84;76.64;99836.55;118721;1147;104531;-73
2021/01/05 04:53:21;;;;;;;;;;;;;;;4.84;76.53;99833.91;118995;1148;104565;-73
2021/01/05 04:55:56;;;;;;;;;;;;;;;4.85;76.57;99838.22;118673;1148;104546;-73
2021/01/05 04:58:27;;;;;;;;;;;;;;;4.87;76.55;99828.38;118751;1147;104492;-72
2021/01/05 05:00:55;;;;;;;;;;;;;;;4.86;76.56;99826.69;118491;1148;104479;-72
2021/01/05 05:03:42;;;;;;;;;;;;;;;4.89;76.87;99834.37;118512;1147;104588;-72
2021/01/05 05:06:20;;;;;;;;;;;;;;;4.87;76.89;99829.22;118331;1147;104621;-73
2021/01/05 05:08:58;;;;;;;;;;;;;;;4.89;76.81;99827.28;118718;1147;104514;-73
2021/01/05 05:11:28;;;;;;;;;;;;;;;4.94;76.87;99824.23;118640;1147;104559;-72
2021/01/05 05:14:00;;;;;;;;;;;;;;;4.96;76.41;99822.30;118657;1146;105007;-72
2021/01/05 05:16:41;;;;;;;;;;;;;;;4.91;76.53;99829.80;118983;1147;104591;-72
2021/01/05 05:19:16;;;;;;;;;;;;;;;4.93;76.61;99830.52;118949;1147;104572;-73
2021/01/05 05:21:47;;;;;;;;;;;;;;;4.95;76.60;99820.64;119003;1147;104522;-72
2021/01/05 05:24:19;;;;;;;;;;;;;;;4.96;76.54;99822.30;118523;1147;104560;-71
2021/01/05 05:26:51;;;;;;;;;;;;;;;5.00;76.47;99822.89;118850;1147;104510;-72
2021/01/05 05:29:24;;;;;;;;;;;;;;;4.98;76.67;99820.38;118498;1147;104546;-72
2021/01/05 05:31:52;;;;;;;;;;;;;;;4.98;76.29;99820.38;118840;1147;104517;-74
2021/01/05 05:34:28;;;;;;;;;;;;;;;4.95;76.47;99812.72;118549;1148;104543;-73
2021/01/05 05:37:12;;;;;;;;;;;;;;;4.94;76.27;99813.66;118505;1147;104553;-72
2021/01/05 05:39:51;;;;;;;;;;;;;;;4.92;77.14;99818.25;118486;1148;104474;-72
2021/01/05 05:42:45;;;;;;;;;;;;;;;4.94;76.77;99811.02;118523;1147;104461;-71
2021/01/05 05:45:15;;;;;;;;;;;;;;;4.91;76.51;99803.36;118968;1147;104546;-72
2021/01/05 05:47:47;;;;;;;;;;;;;;;4.90;76.83;99806.96;118803;1147;105122;-71
2021/01/05 05:50:16;;;;;;;;;;;;;;;4.92;76.60;99802.37;118880;1147;104467;-71
2021/01/05 05:52:48;;;;;;;;;;;;;;;4.94;77.21;99800.45;118945;1147;104515;-71
2021/01/05 05:55:21;;;;;;;;;;;;;;;4.93;77.04;99798.78;118887;1147;104473;-71
2021/01/05 05:57:49;;;;;;;;;;;;;;;4.93;76.76;99790.86;118994;1147;104470;-72
2021/01/05 06:00:30;;;;;;;;;;;;;;;4.92;76.72;99794.45;118969;1147;104540;-72
2021/01/05 06:02:59;;;;;;;;;;;;;;;4.91;76.84;99782.22;118600;1148;104535;-71
2021/01/05 06:05:28;;;;;;;;;;;;;;;4.92;76.33;99787.34;119007;1147;104537;-71
2021/01/05 06:07:55;;;;;;;;;;;;;;;4.90;76.99;99785.81;119077;1147;104459;-72
2021/01/05 06:10:23;;;;;;;;;;;;;;;4.93;76.70;99777.63;118613;1148;104895;-72
2021/01/05 06:12:50;;;;;;;;;;;;;;;4.93;76.51;99785.56;118614;1147;105007;-72
2021/01/05 06:15:17;;;;;;;;;;;;;;;4.91;76.34;99776.93;118982;1147;104455;-72
2021/01/05 06:17:44;;;;;;;;;;;;;;;4.94;76.86;99775.82;118982;1147;104546;-73
2021/01/05 06:20:12;;;;;;;;;;;;;;;4.94;76.92;99775.82;118926;1145;104481;-72
2021/01/05 06:22:39;;;;;;;;;;;;;;;4.97;76.77;99760.55;118932;1146;104451;-73
2021/01/05 06:25:07;;;;;;;;;;;;;;;4.90;77.12;99772.59;118995;1147;104521;-73
2021/01/05 06:27:34;;;;;;;;;;;;;;;4.87;76.91;99764.94;118730;1147;104575;-72
2021/01/05 06:30:03;;;;;;;;;;;;;;;4.88;77.13;99766.59;118434;1147;104492;-72
2021/01/05 06:32:30;;;;;;;;;;;;;;;4.83;77.47;99742.34;118838;1147;104563;-72
2021/01/05 06:34:57;;;;;;;;;;;;;;;4.77;77.46;99758.72;118618;1147;104419;-72
2021/01/05 06:37:24;;;;;;;;;;;;;;;4.73;77.89;99771.34;118508;1147;104939;-72
2021/01/05 06:39:51;;;;;;;;;;;;;;;4.71;77.40;99754.78;118580;1147;104489;-72
2021/01/05 06:42:18;;;;;;;;;;;;;;;4.70;77.47;99753.12;118927;1147;104576;-73
2021/01/05 06:44:45;;;;;;;;;;;;;;;4.70;77.44;99751.31;118903;1147;104553;-72
2021/01/05 06:47:13;;;;;;;;;;;;;;;4.72;77.25;99752.02;118555;1147;104487;-72
2021/01/05 06:49:40;;;;;;;;;;;;;;;4.76;77.48;99749.96;118701;1148;104546;-72
2021/01/05 06:52:07;;;;;;;;;;;;;;;4.77;77.02;99758.72;118501;1146;104498;-72
2021/01/05 06:54:34;;;;;;;;;;;;;;;4.74;77.60;99751.06;118724;1148;104553;-72
2021/01/05 06:57:01;;;;;;;;;;;;;;;4.70;76.99;99750.48;118561;1147;104560;-72
2021/01/05 06:59:28;;;;;;;;;;;;;;;4.67;77.21;99751.55;118519;1147;104556;-72
2021/01/05 07:01:56;;;;;;;;;;;;;;;4.66;77.58;99746.42;118552;1147;104588;-72
2021/01/05 07:04:23;;;;;;;;;;;;;;;4.66;77.58;99743.78;118587;1147;104531;-72
2021/01/05 07:06:51;;;;;;;;;;;;;;;4.66;78.02;99747.25;118517;1147;104457;-73
2021/01/05 07:09:19;;;;;;;;;;;;;;;4.66;78.15;99757.82;118488;1147;104544;-72
2021/01/05 07:11:47;;;;;;;;;;;;;;;4.64;77.55;99740.42;118482;1146;104566;-73
2021/01/05 07:14:15;;;;;;;;;;;;;;;4.67;77.87;99740.16;118584;1148;104458;-72
2021/01/05 07:16:42;;;;;;;;;;;;;;;4.66;77.55;99736.69;118482;1147;104493;-73
2021/01/05 07:19:09;;;;;;;;;;;;;;;4.65;77.57;99742.09;118920;1147;104477;-72
2021/01/05 07:21:36;;;;;;;;;;;;;;;4.65;77.59;99736.80;118964;1147;104960;-72
2021/01/05 07:24:03;;;;;;;;;;;;;;;4.66;77.37;99747.25;118548;1146;104550;-72
2021/01/05 07:26:32;;;;;;;;;;;;;;;4.70;77.94;99738.09;118627;1147;104558;-73
2021/01/05 07:28:59;;;;;;;;;;;;;;;4.70;77.65;99731.98;118824;1147;104490;-73
2021/01/05 07:31:26;;;;;;;;;;;;;;;4.73;77.66;99723.78;118803;1146;104516;-73
2021/01/05 07:33:53;;;;;;;;;;;;;;;4.70;77.59;99727.53;118739;1147;104553;-73
2021/01/05 07:36:23;;;;;;;;;;;;;;;4.69;77.69;99725.00;118922;1146;105004;-73
2021/01/05 07:38:51;;;;;;;;;;;;;;;4.66;77.64;99723.47;118546;1147;104572;-72
2021/01/05 07:41:18;;;;;;;;;;;;;;;4.67;77.93;99719.84;118518;1147;104538;-72
2021/01/05 07:43:45;;;;;;;;;;;;;;;4.69;77.61;99720.55;118458;1146;104549;-72
2021/01/05 07:46:12;;;;;;;;;;;;;;;4.71;77.65;99717.78;118513;1147;104822;-72
2021/01/05 07:48:39;;;;;;;;;;;;;;;4.69;77.71;99717.08;118515;1146;104546;-72
2021/01/05 07:51:07;;;;;;;;;;;;;;;4.70;77.66;99709.03;118477;1147;104862;-72
2021/01/05 07:53:34;;;;;;;;;;;;;;;4.70;77.98;99710.84;118591;1146;104496;-72
2021/01/05 07:56:01;;;;;;;;;;;;;;;4.65;77.90;99713.84;118485;1146;104905;-73
2021/01/05 07:58:28;;;;;;;;;;;;;;;4.61;77.58;99720.36;118894;1148;104462;-72
2021/01/05 08:00:55;;;;;;;;;;;;;;;4.59;78.01;99717.01;119045;1146;104547;-72
2021/01/05 08:03:22;;;;;;;;;;;;;;;4.55;78.14;99699.74;119015;1147;104582;-73
2021/01/05 08:05:49;;;;;;;;;;;;;;;4.52;78.13;99705.27;118554;1147;104456;-72
2021/01/05 08:08:16;;;;;;;;;;;;;;;4.52;78.41;99703.48;118688;1147;104899;-72
2021/01/05 08:10:44;;;;;;;;;;;;;;;4.52;78.21;99695.56;118555;1146;104538;-72
2021/01/05 08:13:11;;;;;;;;;;;;;;;4.49;78.19;99701.09;118571;1146;104447;-72
2021/01/05 08:15:38;;;;;;;;;;;;;;;4.46;77.50;99697.86;118808;1147;104591;-72
2021/01/05 08:18:07;;;;;;;;;;;;;;;4.47;78.07;99694.27;118698;1148;104487;-72
2021/01/05 08:20:34;;;;;;;;;;;;;;;4.48;77.98;99695.92;118895;1146;104442;-72
2021/01/05 08:23:03;;;;;;;;;;;;;;;4.49;78.08;99694.98;118543;1147;104894;-72
2021/01/05 08:25:30;;;;;;;;;;;;;;;4.46;78.46;99693.41;118796;1146;104959;-72
2021/01/05 08:27:58;;;;;;;;;;;;;;;4.51;78.02;99690.40;118943;1147;104483;-72
2021/01/05 08:30:26;;;;;;;;;;;;;;;4.53;78.20;99678.72;118837;1147;104532;-72
2021/01/05 08:32:54;;;;;;;;;;;;;;;4.55;78.03;99670.67;118948;1147;104551;-72
2021/01/05 08:35:23;;;;;;;;;;;;;;;4.57;77.91;99676.67;118854;1147;104580;-72
2021/01/05 08:37:51;;;;;;;;;;;;;;;4.61;78.02;99669.33;118462;1146;104860;-71
2021/01/05 08:40:19;;;;;;;;;;;;;;;4.60;77.39;99667.63;118515;1147;104471;-72
2021/01/05 08:42:46;;;;;;;;;;;;;;;4.55;77.22;99668.03;118807;1147;104647;-72
2021/01/05 08:45:14;;;;;;;;;;;;;;;4.53;77.82;99668.16;118793;1147;104577;-74
2021/01/05 08:47:41;;;;;;;;;;;;;;;4.52;77.79;99661.22;118731;1147;104463;-71
2021/01/05 08:50:14;;;;;;;;;;;;;;;4.52;77.67;99661.22;118504;1146;104596;-72
2021/01/05 08:52:41;;;;;;;;;;;;;;;4.53;77.55;99656.77;118442;1147;104498;-72
2021/01/05 08:55:09;;;;;;;;;;;;;;;4.56;77.69;99668.86;118884;1147;104546;-72
2021/01/05 08:57:36;;;;;;;;;;;;;;;4.52;77.63;99655.07;118930;1147;104556;-72
2021/01/05 09:00:04;;;;;;;;;;;;;;;4.55;77.55;99664.56;118599;1146;105723;-73
2021/01/05 09:02:31;;;;;;;;;;;;;;;4.57;78.00;99647.61;118904;1146;104895;-74
2021/01/05 09:04:58;;;;;;;;;;;;;;;4.59;77.65;99653.59;118496;1147;105000;-75
2021/01/05 09:07:25;;;;;;;;;;;;;;;4.58;77.61;99645.79;118599;1147;104532;-72
2021/01/05 09:09:52;;;;;;;;;;;;;;;4.62;77.70;99645.42;118515;1146;104559;-73
2021/01/05 09:12:19;;;;;;;;;;;;;;;4.65;77.60;99642.50;118891;1146;104455;-72
2021/01/05 09:14:46;;;;;;;;;;;;;;;4.72;77.64;99638.38;118775;1146;104889;-73
2021/01/05 09:17:13;;;;;;;;;;;;;;;4.74;77.51;99637.42;118501;1146;104581;-72
2021/01/05 09:19:40;;;;;;;;;;;;;;;4.79;77.79;99632.56;118621;1146;104557;-73
2021/01/05 09:22:07;;;;;;;;;;;;;;;4.81;77.37;99636.77;118760;1147;104495;-73
2021/01/05 09:24:34;;;;;;;;;;;;;;;4.84;77.36;99638.30;118740;1147;104574;-74
2021/01/05 09:27:01;;;;;;;;;;;;;;;4.88;77.97;99627.31;119101;1147;104543;-72
2021/01/05 09:29:28;;;;;;;;;;;;;;;4.88;77.60;99626.49;118883;1146;104649;-71
2021/01/05 09:31:56;;;;;;;;;;;;;;;4.88;77.36;99626.49;118722;1146;104570;-72
2021/01/05 09:34:24;;;;;;;;;;;;;;;4.89;77.43;99620.25;118502;1147;104438;-71
2021/01/05 09:36:51;;;;;;;;;;;;;;;4.90;77.35;99622.73;118896;1145;104516;-72
2021/01/05 09:39:22;;;;;;;;;;;;;;;4.88;77.06;99622.03;118537;1146;104450;-72
2021/01/05 09:41:50;;;;;;;;;;;;;;;4.85;77.27;99613.52;118470;1147;104548;-72
2021/01/05 09:44:18;;;;;;;;;;;;;;;4.85;77.49;99605.59;118498;1147;104453;-72
2021/01/05 09:46:49;;;;;;;;;;;;;;;4.82;78.03;99613.81;118530;1146;104458;-72
2021/01/05 09:49:17;;;;;;;;;;;;;;;4.83;76.91;99603.11;118850;1147;104578;-72
2021/01/05 09:51:44;;;;;;;;;;;;;;;4.82;77.23;99600.59;118495;1147;104566;-72
2021/01/05 09:54:11;;;;;;;;;;;;;;;4.87;77.31;99606.33;118737;1146;104473;-74
2021/01/05 09:56:38;;;;;;;;;;;;;;;4.85;77.04;99592.38;118647;1147;104614;-72
2021/01/05 09:59:05;;;;;;;;;;;;;;;4.80;76.98;99590.14;118920;1147;104524;-73
2021/01/05 10:01:33;;;;;;;;;;;;;;;4.81;77.20;99586.55;118915;1147;104546;-73
2021/01/05 10:04:01;;;;;;;;;;;;;;;4.82;76.77;99585.56;118975;1148;104495;-73
2021/01/05 10:06:29;;;;;;;;;;;;;;;4.71;76.78;99585.64;118546;1146;104484;-72
2021/01/05 10:08:56;;;;;;;;;;;;;;;4.67;77.31;99587.70;118533;1146;104495;-71
2021/01/05 10:11:29;;;;;;;;;;;;;;;4.70;77.33;99578.70;118472;1147;104506;-72
2021/01/05 10:13:56;;;;;;;;;;;;;;;4.74;76.81;99577.47;118575;1146;104596;-73
2021/01/05 10:16:23;;;;;;;;;;;;;;;4.75;77.19;99573.84;118584;1146;104474;-72
2021/01/05 10:18:50;;;;;;;;;;;;;;;4.72;77.28;99567.02;118498;1146;104549;-72
2021/01/05 10:21:17;;;;;;;;;;;;;;;4.72;76.87;99566.19;118479;1146;104552;-72
2021/01/05 10:23:44;;;;;;;;;;;;;;;4.64;76.58;99551.00;118503;1147;104475;-73
2021/01/05 10:26:11;;;;;;;;;;;;;;;4.63;76.81;99562.52;118809;1148;105382;-73
2021/01/05 10:28:38;;;;;;;;;;;;;;;4.61;77.03;99556.53;118792;1146;105485;-73
2021/01/05 10:31:05;;;;;;;;;;;;;;;4.63;76.69;99562.52;118457;1146;104550;-72
2021/01/05 10:33:32;;;;;;;;;;;;;;;4.65;76.69;99550.02;118466;1147;104556;-72
2021/01/05 10:35:59;;;;;;;;;;;;;;;4.65;76.06;99549.19;118673;1147;104550;-72
2021/01/05 10:38:26;;;;;;;;;;;;;;;4.64;76.77;99548.36;118824;1147;104458;-72
2021/01/05 10:40:53;;;;;;;;;;;;;;;4.68;76.74;99539.19;118539;1147;104843;-72
2021/01/05 10:43:20;;;;;;;;;;;;;;;4.66;76.53;99538.48;118523;1146;104834;-72
2021/01/05 10:45:48;;;;;;;;;;;;;;;4.60;76.52;99536.38;118460;1147;105388;-71
2021/01/05 10:48:15;;;;;;;;;;;;;;;4.60;76.62;99541.67;118581;1147;104466;-72
2021/01/05 10:50:42;;;;;;;;;;;;;;;4.61;76.60;99538.04;119025;1147;104537;-72
2021/01/05 10:53:10;;;;;;;;;;;;;;;4.57;76.51;99533.99;118592;1147;104577;-71
2021/01/05 10:55:37;;;;;;;;;;;;;;;4.58;76.60;99538.32;118843;1146;104549;-71
2021/01/05 10:58:04;;;;;;;;;;;;;;;4.60;76.71;99530.23;118500;1146;104578;-72
2021/01/05 11:00:31;;;;;;;;;;;;;;;4.60;76.22;99530.23;118828;1147;104562;-71
2021/01/05 11:02:59;;;;;;;;;;;;;;;4.56;76.01;99523.55;118979;1147;104819;-71
2021/01/05 11:05:26;;;;;;;;;;;;;;;4.50;76.20;99522.27;118949;1147;104612;-72
2021/01/05 11:07:53;;;;;;;;;;;;;;;4.47;76.29;99514.63;118934;1147;104467;-71
2021/01/05 11:10:21;;;;;;;;;;;;;;;4.46;75.87;99507.66;118776;1147;104545;-71
2021/01/05 11:12:48;;;;;;;;;;;;;;;4.45;76.30;99508.64;118694;1146;104896;-71
2021/01/05 11:15:16;;;;;;;;;;;;;;;4.48;76.23;99506.58;118832;1146;104498;-72
2021/01/05 11:17:44;;;;;;;;;;;;;;;4.48;76.23;99506.58;118583;1147;104558;-71
2021/01/05 11:20:12;;;;;;;;;;;;;;;4.55;76.14;99496.30;118945;1147;104939;-71
2021/01/05 11:22:39;;;;;;;;;;;;;;;4.51;76.01;99501.01;118811;1147;105278;-71
2021/01/05 11:25:08;;;;;;;;;;;;;;;4.47;75.91;99496.97;118790;1147;104828;-72
2021/01/05 11:27:35;;;;;;;;;;;;;;;4.50;75.87;99487.92;118486;1147;104550;-71
2021/01/05 11:30:03;;;;;;;;;;;;;;;4.46;75.90;99486.52;118783;1147;104489;-71
2021/01/05 11:32:30;;;;;;;;;;;;;;;4.38;75.37;99481.91;118984;1146;104490;-70
2021/01/05 11:34:57;;;;;;;;;;;;;;;4.40;76.15;99484.42;118954;1146;104547;-71
2021/01/05 11:37:24;;;;;;;;;;;;;;;4.41;76.29;99488.75;118908;1147;104493;-71
2021/01/05 11:39:53;;;;;;;;;;;;;;;4.48;76.14;99484.59;118873;1147;104555;-71
2021/01/05 11:42:21;;;;;;;;;;;;;;;4.45;75.48;99484.88;118742;1146;104527;-71
2021/01/05 11:44:48;;;;;;;;;;;;;;;4.38;75.89;99473.16;118613;1146;104547;-71
2021/01/05 11:47:17;;;;;;;;;;;;;;;4.32;74.91;99475.34;118518;1147;104553;-71
2021/01/05 11:49:44;;;;;;;;;;;;;;;4.24;75.55;99472.53;118613;1146;104657;-71
2021/01/05 11:52:11;;;;;;;;;;;;;;;4.18;75.32;99472.23;118558;1146;104572;-73
2021/01/05 11:54:38;;;;;;;;;;;;;;;4.12;75.58;99463.04;118436;1148;104486;-71
2021/01/05 11:57:05;;;;;;;;;;;;;;;4.16;76.09;99463.58;118473;1147;104465;-71
2021/01/05 11:59:32;;;;;;;;;;;;;;;4.20;76.25;99450.00;118568;1147;104850;-71
2021/01/05 12:02:00;;;;;;;;;;;;;;;4.20;75.71;99455.28;118702;1147;104570;-71
2021/01/05 12:04:28;;;;;;;;;;;;;;;4.15;75.65;99459.28;118894;1148;105881;-73
2021/01/05 12:06:55;;;;;;;;;;;;;;;4.09;75.71;99458.01;118912;1147;105565;-71
2021/01/05 12:09:23;;;;;;;;;;;;;;;4.10;75.77;99457.05;118778;1146;104556;-72
2021/01/05 12:11:55;;;;;;;;;;;;;;;4.09;75.59;99448.28;118493;1147;105571;-71
2021/01/05 12:14:23;;;;;;;;;;;;;;;4.10;75.55;99454.41;118505;1147;104476;-72
2021/01/05 12:16:50;;;;;;;;;;;;;;;4.10;75.09;99451.77;118853;1146;104546;-71
2021/01/05 12:19:19;;;;;;;;;;;;;;;4.11;75.46;99445.52;118517;1147;104451;-70
2021/01/05 12:21:46;;;;;;;;;;;;;;;4.16;75.86;99448.60;118942;1146;104679;-72
2021/01/05 12:24:14;;;;;;;;;;;;;;;4.21;75.33;99451.66;118721;1148;104567;-71
2021/01/05 12:26:41;;;;;;;;;;;;;;;4.26;75.17;99446.83;118917;1146;104474;-71
2021/01/05 12:29:10;;;;;;;;;;;;;;;4.28;75.50;99446.70;118535;1147;104508;-71
2021/01/05 12:31:42;;;;;;;;;;;;;;;4.23;74.94;99439.16;118664;1147;104495;-71
2021/01/05 12:34:10;;;;;;;;;;;;;;;4.18;75.01;99443.20;118847;1147;104460;-70
2021/01/05 12:36:38;;;;;;;;;;;;;;;4.12;75.56;99441.92;118532;1146;104500;-71
2021/01/05 12:39:07;;;;;;;;;;;;;;;4.07;75.29;99439.66;118619;1147;104548;-72
2021/01/05 12:41:34;;;;;;;;;;;;;;;4.06;75.23;99443.28;118617;1147;104479;-72
2021/01/05 12:44:02;;;;;;;;;;;;;;;4.02;75.67;99446.29;118669;1146;104556;-73
2021/01/05 12:46:30;;;;;;;;;;;;;;;4.04;75.24;99439.08;118464;1147;104424;-72
2021/01/05 12:48:57;;;;;;;;;;;;;;;4.06;75.08;99439.78;118484;1146;104469;-72
2021/01/05 12:51:28;;;;;;;;;;;;;;;4.11;75.57;99440.23;118877;1147;104563;-72
2021/01/05 12:53:55;;;;;;;;;;;;;;;4.12;75.50;99437.47;118737;1147;104646;-73
2021/01/05 12:56:23;;;;;;;;;;;;;;;4.17;75.62;99434.41;118989;1147;104473;-73